Terminal Aerodrome Forecast
Issued by NWS Newport/Morehead City, NC

Home | Current Version | Previous Version | Text Only | Print | Product List | Glossary On
Versions: 1 2 3 4 5 6 7 8 9 10 11 12 13 14 15 16 17 18 19 20
833
FTUS42 KMHX 192326
TAFEWN
TAF
KEWN 192326Z 2000/2024 24004KT P6SM VCTS SCT025 BKN050CB
     FM200200 26004KT P6SM SCT050 BKN120
     FM200900 36007KT P6SM SKC
     FM201500 03011KT P6SM SCT040=

USA.gov is the U.S. government's official web portal to all federal, state and local government web resources and services.